Limon, CO (80826)

11:23 PM MDT on August 28, 2016 (GMT -0600)
Limon, CO | | Change Station

Elev 5361 ft 39.27 °N, 103.68 °W | Updated 14 minutes ago

Light Thunderstorms and Rain
Light Thunderstorm Rain
59.1 °F
Feels Like 59.1 °F
N
3.0
Wind Variable Wind from South
Gusts 9.0 mph

Today
High -- | Low -- °F
--% Chance of Precip.
Yesterday
High -- | Low -- °F
Precip. -- in
Pressure 30.09 in
Visibility 10.0 miles
Clouds Overcast 9500 ft
Dew Point 55 °F
Humidity 87%
Rainfall 0.17 in
Snow Depth Not available.
6:20 AM 7:30 PM
Waning Crescent, 11% visible
METAR KLIC 290455Z AUTO 17007KT 10SM -TSRA OVC095 15/13 A3030 RMK AO2 LTG DSNT N AND E RAB10 TSB23 SLP189 P0010 T01500128
Pressure 30.09 in
Visibility 10.0 miles
Clouds Overcast 9500 ft
Dew Point 55 °F
Humidity 87%
Rainfall 0.17 in
Snow Depth Not available.
6:20 AM 7:30 PM
Waning Crescent, 11% visible
METAR KLIC 290455Z AUTO 17007KT 10SM -TSRA OVC095 15/13 A3030 RMK AO2 LTG DSNT N AND E RAB10 TSB23 SLP189 P0010 T01500128

10-Day Weather Forecast

Almanac

Astronomy

Aug. 28, 2016 Rise Set
Actual Time
Civil Twilight
Nautical Twilight
Astronomical Twilight
Moon
Length of Visible Light
Length of Day
Tomorrow will be .
, % of the Moon is Illuminated

Today's Extremes

State Highs State Lows

Community

WunderPhotos

Upload Photos

1,935,800 photos uploaded!

WunderBlog® & News

Nearby

Air Quality

  Air Quality AQ Index Pollutant
Not available.

Snow Depth

Station Depth Elevation

Earthquake Activity

City Distance Mag. Time & Date
Minimum magnitude displayed is 2.5.

Coastal Water Temperatures

Place Temperature

Stations

Nearby Weather Stations

Station Location Temp. Windchill Dew Point Humidity Wind Precip. Elev Updated Type
                   

Watches & Warnings

There are currently no watches in effect.